Guthrie, North Carolina
Current Conditions -  °F | °C
As of 8:54 AM on Sunday 21 Dec 2014 (Local Time) from KGSO Reporting Station
Haze Haze  
Wind Chill:   Ceiling: 2300
Heat Index:   Visibility: 5mi
Dew Point:   Wind: 3mph
Humidity: 83%   Direction: 70°ENE
Pressure: 30.28"   Gusts: NA
Location:  36.1188°N, 80.075°W
Report Text: KGSO 211354Z 07003KT 5SM BR OVC023 04/02 A3028 RMK AO2 SLP257 T00440017
Loading
Personal Weather Stations






























Interactive Weather Map New forecast layout! Learn more

10-Day Weather Forecast

Advertisements
Track Severe Weather on mobile